Time;durP1;ratioP1;P1;durP2;ratioP2;P2;SDS_P1;SDS_P2;PMS_P1;PMS_P2;Temp;Humidity;BMP_temperature;BMP_pressure;BME280_temperature;BME280_humidity;BME280_pressure;Samples;Min_cycle;Max_cycle;Signal;HPM_P1;HPM_P2
2023/01/10 00:01:51;;;;;;;;;;;4.50;99.90;;;;;;5024619;28;19928;-73
2023/01/10 00:04:17;;;;;;;;;;;4.50;99.90;;;;;;5037675;28;20358;-73
2023/01/10 00:06:50;;;;;;;;;;;4.60;99.90;;;;;;5008189;28;20008;-74
2023/01/10 00:09:16;;;;;;;;;;;4.50;99.90;;;;;;5004691;28;19929;-73
2023/01/10 00:14:32;;;;;;;;;;;4.50;99.90;;;;;;5023028;28;19921;-73
2023/01/10 00:17:03;;;;;;;;;;;4.50;99.90;;;;;;5007601;28;19929;-73
2023/01/10 00:19:29;;;;;;;;;;;4.50;99.90;;;;;;5035806;28;19960;-73
2023/01/10 00:22:37;;;;;;;;;;;4.50;99.90;;;;;;5008065;28;19957;-73
2023/01/10 00:24:47;;;;;;;;;;;4.50;99.90;;;;;;5018292;28;19977;-74
2023/01/10 00:27:15;;;;;;;;;;;4.50;99.90;;;;;;5024207;28;19987;-73
2023/01/10 00:29:41;;;;;;;;;;;4.40;99.90;;;;;;5006259;28;20286;-73
2023/01/10 00:32:07;;;;;;;;;;;4.40;99.90;;;;;;5037397;28;19967;-73
2023/01/10 00:34:33;;;;;;;;;;;4.40;99.90;;;;;;5006511;28;19936;-73
2023/01/10 00:36:59;;;;;;;;;;;4.40;99.90;;;;;;5038833;28;19929;-73
2023/01/10 00:39:26;;;;;;;;;;;4.40;99.90;;;;;;5032998;28;20276;-73
2023/01/10 00:44:43;;;;;;;;;;;4.30;99.90;;;;;;5005752;28;19929;-73
2023/01/10 00:47:18;;;;;;;;;;;4.40;99.90;;;;;;5022975;28;20414;-73
2023/01/10 00:49:43;;;;;;;;;;;4.40;99.90;;;;;;5018592;28;20409;-73
2023/01/10 00:52:10;;;;;;;;;;;4.40;99.90;;;;;;5023364;28;19929;-73
2023/01/10 00:54:35;;;;;;;;;;;4.40;99.90;;;;;;5036650;28;19921;-73
2023/01/10 00:57:01;;;;;;;;;;;4.30;99.90;;;;;;5007123;28;19928;-73
2023/01/10 00:59:33;;;;;;;;;;;4.40;99.90;;;;;;5019686;28;20527;-73
2023/01/10 01:02:06;;;;;;;;;;;4.40;99.90;;;;;;5007234;28;19968;-73
2023/01/10 01:04:40;;;;;;;;;;;4.40;99.90;;;;;;5005622;28;19951;-73
2023/01/10 01:07:06;;;;;;;;;;;4.50;99.90;;;;;;4990085;28;20374;-73
2023/01/10 01:09:31;;;;;;;;;;;4.50;99.90;;;;;;5036043;28;19925;-73
2023/01/10 01:11:57;;;;;;;;;;;4.50;99.90;;;;;;4990344;28;20028;-73
2023/01/10 01:14:30;;;;;;;;;;;4.60;99.90;;;;;;5023067;28;19932;-73
2023/01/10 01:16:56;;;;;;;;;;;4.60;99.90;;;;;;5022783;28;19921;-73
2023/01/10 01:19:22;;;;;;;;;;;4.50;99.90;;;;;;5021702;28;19921;-73
2023/01/10 01:21:47;;;;;;;;;;;4.50;99.90;;;;;;5022354;28;20337;-73
2023/01/10 01:24:13;;;;;;;;;;;4.50;99.90;;;;;;5007035;28;19940;-73
2023/01/10 01:26:45;;;;;;;;;;;4.50;99.90;;;;;;5020855;28;20024;-73
2023/01/10 01:29:12;;;;;;;;;;;4.60;99.90;;;;;;5020788;28;19921;-73
2023/01/10 01:31:37;;;;;;;;;;;4.50;99.90;;;;;;5033515;28;19921;-73
2023/01/10 01:34:05;;;;;;;;;;;4.50;99.90;;;;;;5006894;28;20466;-73
2023/01/10 01:36:33;;;;;;;;;;;4.60;99.90;;;;;;5037038;28;19967;-73
2023/01/10 01:39:02;;;;;;;;;;;4.50;99.90;;;;;;5021284;28;19951;-73
2023/01/10 01:44:15;;;;;;;;;;;4.60;99.90;;;;;;5022181;28;19933;-73
2023/01/10 01:46:50;;;;;;;;;;;4.60;99.90;;;;;;5036404;28;20325;-73
2023/01/10 01:49:19;;;;;;;;;;;4.60;99.90;;;;;;5002964;28;19929;-73
2023/01/10 01:51:49;;;;;;;;;;;4.60;99.90;;;;;;5020579;28;19921;-73
2023/01/10 01:54:47;;;;;;;;;;;4.60;99.90;;;;;;5022236;28;20398;-73
2023/01/10 01:57:19;;;;;;;;;;;4.60;99.90;;;;;;5020394;28;20004;-73
2023/01/10 01:59:46;;;;;;;;;;;4.70;99.90;;;;;;5007439;28;20013;-73
2023/01/10 02:02:22;;;;;;;;;;;4.60;99.90;;;;;;5026410;28;19921;-73
2023/01/10 02:04:59;;;;;;;;;;;4.60;99.90;;;;;;5023949;28;20378;-73
2023/01/10 02:07:33;;;;;;;;;;;4.50;99.90;;;;;;5028364;28;20008;-73
2023/01/10 02:10:11;;;;;;;;;;;4.50;99.90;;;;;;5024400;28;19925;-73
2023/01/10 02:12:41;;;;;;;;;;;4.50;99.90;;;;;;5027002;28;19932;-73
2023/01/10 02:15:10;;;;;;;;;;;4.50;99.90;;;;;;5010331;28;19921;-73
2023/01/10 02:17:41;;;;;;;;;;;4.40;99.90;;;;;;5029028;28;19971;-73
2023/01/10 02:20:11;;;;;;;;;;;4.40;99.90;;;;;;5028289;28;19925;-73
2023/01/10 02:22:41;;;;;;;;;;;4.40;99.90;;;;;;5041637;28;19925;-73
2023/01/10 02:25:26;;;;;;;;;;;4.40;99.90;;;;;;5038456;28;20402;-73
2023/01/10 02:28:19;;;;;;;;;;;4.40;99.90;;;;;;5037122;28;19928;-73
2023/01/10 02:31:07;;;;;;;;;;;4.40;99.90;;;;;;5037553;28;19943;-73
2023/01/10 02:33:50;;;;;;;;;;;4.30;99.90;;;;;;5025452;28;20382;-73
2023/01/10 02:36:16;;;;;;;;;;;4.30;99.90;;;;;;5006523;28;20364;-73
2023/01/10 02:38:57;;;;;;;;;;;4.30;99.90;;;;;;5025678;28;19928;-73
2023/01/10 02:41:28;;;;;;;;;;;4.40;99.90;;;;;;5022700;28;19929;-73
2023/01/10 02:44:02;;;;;;;;;;;4.30;99.90;;;;;;5038060;28;19933;-73
2023/01/10 02:46:29;;;;;;;;;;;4.30;99.90;;;;;;5025449;28;20020;-73
2023/01/10 02:48:55;;;;;;;;;;;4.30;99.90;;;;;;5039910;28;20835;-73
2023/01/10 02:51:32;;;;;;;;;;;4.30;99.90;;;;;;5026094;28;19929;-73
2023/01/10 02:54:10;;;;;;;;;;;4.30;99.90;;;;;;5040782;28;20011;-73
2023/01/10 02:56:45;;;;;;;;;;;4.20;99.90;;;;;;5024171;28;19925;-73
2023/01/10 02:59:11;;;;;;;;;;;4.20;99.90;;;;;;5034855;28;19932;-73
2023/01/10 03:01:36;;;;;;;;;;;4.20;99.90;;;;;;5008555;28;19925;-73
2023/01/10 03:04:17;;;;;;;;;;;4.20;99.90;;;;;;5008355;28;19980;-73
2023/01/10 03:06:55;;;;;;;;;;;4.20;99.90;;;;;;5039625;28;19967;-73
2023/01/10 03:09:42;;;;;;;;;;;4.00;99.90;;;;;;5024741;28;19932;-73
2023/01/10 03:12:17;;;;;;;;;;;4.10;99.90;;;;;;5023171;28;20199;-73
2023/01/10 03:14:47;;;;;;;;;;;4.10;99.90;;;;;;5033991;28;19921;-73
2023/01/10 03:17:13;;;;;;;;;;;4.20;99.90;;;;;;5008806;28;19983;-73
2023/01/10 03:19:42;;;;;;;;;;;4.20;99.90;;;;;;5034556;28;19956;-73
2023/01/10 03:22:09;;;;;;;;;;;4.10;99.90;;;;;;5035293;28;20245;-73
2023/01/10 03:24:38;;;;;;;;;;;4.20;99.90;;;;;;5022571;28;20692;-73
2023/01/10 03:27:03;;;;;;;;;;;4.20;99.90;;;;;;5038331;28;19984;-73
2023/01/10 03:30:06;;;;;;;;;;;4.20;99.90;;;;;;5032702;28;20322;-73
2023/01/10 03:32:37;;;;;;;;;;;4.20;99.90;;;;;;4966887;28;19932;-73
2023/01/10 03:35:10;;;;;;;;;;;4.30;99.90;;;;;;4997504;28;19925;-73
2023/01/10 03:37:40;;;;;;;;;;;4.30;99.90;;;;;;5023332;28;20456;-73
2023/01/10 03:40:25;;;;;;;;;;;4.30;99.90;;;;;;5037943;28;19927;-73
2023/01/10 03:46:03;;;;;;;;;;;4.30;99.90;;;;;;4997129;28;20374;-73
2023/01/10 03:48:32;;;;;;;;;;;4.30;99.90;;;;;;5023142;28;19925;-73
2023/01/10 03:51:12;;;;;;;;;;;4.30;99.90;;;;;;5026697;28;19921;-73
2023/01/10 03:53:49;;;;;;;;;;;4.30;99.90;;;;;;5025242;28;19999;-73
2023/01/10 03:56:15;;;;;;;;;;;4.20;99.90;;;;;;5009138;28;19928;-73
2023/01/10 03:58:42;;;;;;;;;;;4.20;99.90;;;;;;5024886;28;19937;-73
2023/01/10 04:01:08;;;;;;;;;;;4.20;99.90;;;;;;5024157;28;19921;-73
2023/01/10 04:03:34;;;;;;;;;;;4.20;99.90;;;;;;5034344;28;20397;-73
2023/01/10 04:06:00;;;;;;;;;;;4.10;99.90;;;;;;5018237;28;19929;-73
2023/01/10 04:08:25;;;;;;;;;;;4.10;99.90;;;;;;5036644;28;19928;-73
2023/01/10 04:10:51;;;;;;;;;;;4.00;99.90;;;;;;4995538;28;20444;-73
2023/01/10 04:13:16;;;;;;;;;;;4.00;99.90;;;;;;5027695;28;19921;-73
2023/01/10 04:16:00;;;;;;;;;;;4.00;99.90;;;;;;5040494;28;19921;-73
2023/01/10 04:18:34;;;;;;;;;;;4.10;99.90;;;;;;5035956;28;20347;-73
2023/01/10 04:21:06;;;;;;;;;;;4.00;99.90;;;;;;5036132;28;19971;-73
2023/01/10 04:23:32;;;;;;;;;;;4.00;99.90;;;;;;5019967;28;19964;-73
2023/01/10 04:26:03;;;;;;;;;;;4.10;99.90;;;;;;5008398;28;19921;-73
2023/01/10 04:28:33;;;;;;;;;;;4.20;99.90;;;;;;5034910;28;19921;-73
2023/01/10 04:31:04;;;;;;;;;;;4.20;99.90;;;;;;5024245;28;19931;-73
2023/01/10 04:33:33;;;;;;;;;;;4.20;99.90;;;;;;5021675;28;20357;-73
2023/01/10 04:36:08;;;;;;;;;;;4.30;99.90;;;;;;5023473;28;20004;-73
2023/01/10 04:38:34;;;;;;;;;;;4.30;99.90;;;;;;5021814;28;19972;-73
2023/01/10 04:41:00;;;;;;;;;;;4.40;99.90;;;;;;5039351;28;20394;-73
2023/01/10 04:43:28;;;;;;;;;;;4.40;99.90;;;;;;5004763;28;20532;-73
2023/01/10 04:45:54;;;;;;;;;;;4.40;99.90;;;;;;5034317;28;20469;-73
2023/01/10 04:48:26;;;;;;;;;;;4.40;99.90;;;;;;5021946;28;20027;-73
2023/01/10 04:50:54;;;;;;;;;;;4.40;99.90;;;;;;5036313;28;19975;-73
2023/01/10 04:53:23;;;;;;;;;;;4.40;99.90;;;;;;5032651;28;19929;-73
2023/01/10 04:55:49;;;;;;;;;;;4.50;99.90;;;;;;5007115;28;19952;-74
2023/01/10 04:58:17;;;;;;;;;;;4.60;99.90;;;;;;5021524;28;20390;-74
2023/01/10 05:00:43;;;;;;;;;;;4.60;99.90;;;;;;5008082;28;19963;-74
2023/01/10 05:03:19;;;;;;;;;;;4.80;99.90;;;;;;5020911;28;20131;-74
2023/01/10 05:05:44;;;;;;;;;;;4.70;99.90;;;;;;5033758;28;19921;-73
2023/01/10 05:08:10;;;;;;;;;;;4.70;99.90;;;;;;5005144;28;20313;-74
2023/01/10 05:10:35;;;;;;;;;;;4.70;99.90;;;;;;5007216;28;19929;-73
2023/01/10 05:13:04;;;;;;;;;;;4.70;99.90;;;;;;4989191;28;19952;-73
2023/01/10 05:15:33;;;;;;;;;;;4.70;99.90;;;;;;5037397;28;19921;-73
2023/01/10 05:17:59;;;;;;;;;;;4.70;99.90;;;;;;5024536;28;20347;-73
2023/01/10 05:20:34;;;;;;;;;;;4.70;99.90;;;;;;5005836;28;19921;-73
2023/01/10 05:22:59;;;;;;;;;;;4.80;99.90;;;;;;5024273;28;19929;-73
2023/01/10 05:25:27;;;;;;;;;;;4.90;99.90;;;;;;5021574;28;19930;-73
2023/01/10 05:27:54;;;;;;;;;;;4.80;99.90;;;;;;5031427;28;20043;-73
2023/01/10 05:30:25;;;;;;;;;;;4.80;99.90;;;;;;5022247;28;19928;-73
2023/01/10 05:33:00;;;;;;;;;;;4.80;99.90;;;;;;5007482;28;19921;-73
2023/01/10 05:35:47;;;;;;;;;;;4.80;99.90;;;;;;5010514;28;19921;-73
2023/01/10 05:38:25;;;;;;;;;;;4.70;99.90;;;;;;5024713;28;19929;-73
2023/01/10 05:41:01;;;;;;;;;;;4.70;99.90;;;;;;5026017;28;19929;-73
2023/01/10 05:43:30;;;;;;;;;;;4.70;99.90;;;;;;5035879;28;19925;-73
2023/01/10 05:45:58;;;;;;;;;;;4.70;99.90;;;;;;5010256;28;19932;-73
2023/01/10 05:48:24;;;;;;;;;;;4.70;99.90;;;;;;5018487;28;19929;-73
2023/01/10 05:50:56;;;;;;;;;;;4.80;99.90;;;;;;5009921;28;20313;-73
2023/01/10 05:53:26;;;;;;;;;;;4.80;99.90;;;;;;5025557;28;20382;-73
2023/01/10 05:55:56;;;;;;;;;;;4.70;99.90;;;;;;5010448;28;20366;-73
2023/01/10 05:58:25;;;;;;;;;;;4.80;99.90;;;;;;5038777;28;19925;-73
2023/01/10 06:00:51;;;;;;;;;;;4.80;99.90;;;;;;5040842;28;19936;-73
2023/01/10 06:03:17;;;;;;;;;;;4.90;99.90;;;;;;4993357;28;19928;-74
2023/01/10 06:05:43;;;;;;;;;;;4.90;99.90;;;;;;5019858;28;19925;-73
2023/01/10 06:08:08;;;;;;;;;;;4.90;99.90;;;;;;5026670;28;19944;-73
2023/01/10 06:10:34;;;;;;;;;;;4.90;99.90;;;;;;5026474;28;19920;-73
2023/01/10 06:13:04;;;;;;;;;;;4.90;99.90;;;;;;5010926;28;20386;-73
2023/01/10 06:15:29;;;;;;;;;;;4.90;99.90;;;;;;5036414;28;20477;-73
2023/01/10 06:17:55;;;;;;;;;;;4.80;99.90;;;;;;5025768;28;19921;-73
2023/01/10 06:20:21;;;;;;;;;;;4.90;99.90;;;;;;5036501;28;19925;-73
2023/01/10 06:22:52;;;;;;;;;;;4.90;99.90;;;;;;5034709;28;20379;-73
2023/01/10 06:25:17;;;;;;;;;;;4.90;99.90;;;;;;5037377;28;20215;-73
2023/01/10 06:27:43;;;;;;;;;;;4.80;99.90;;;;;;5008743;28;20288;-73
2023/01/10 06:30:10;;;;;;;;;;;4.80;99.90;;;;;;5037435;28;20287;-73
2023/01/10 06:32:36;;;;;;;;;;;4.80;99.90;;;;;;5011318;28;19968;-73
2023/01/10 06:35:02;;;;;;;;;;;4.80;99.90;;;;;;5008362;28;19922;-73
2023/01/10 06:37:31;;;;;;;;;;;4.80;99.90;;;;;;5009994;28;19931;-73
2023/01/10 06:39:58;;;;;;;;;;;4.80;99.90;;;;;;5022026;28;19925;-73
2023/01/10 06:42:24;;;;;;;;;;;4.90;99.90;;;;;;5026513;28;19943;-73
2023/01/10 06:44:49;;;;;;;;;;;4.90;99.90;;;;;;5039585;28;20370;-73
2023/01/10 06:47:15;;;;;;;;;;;4.90;99.90;;;;;;5023029;28;20391;-73
2023/01/10 06:49:41;;;;;;;;;;;4.90;99.90;;;;;;5023820;28;19929;-73
2023/01/10 06:52:06;;;;;;;;;;;4.90;99.90;;;;;;4994004;28;19944;-73
2023/01/10 06:54:41;;;;;;;;;;;4.90;99.90;;;;;;5009180;28;19987;-73
2023/01/10 06:57:07;;;;;;;;;;;4.90;99.90;;;;;;5011100;28;19925;-73
2023/01/10 06:59:36;;;;;;;;;;;4.90;99.90;;;;;;5035591;28;19968;-73
2023/01/10 07:02:04;;;;;;;;;;;4.90;99.90;;;;;;5007549;28;19972;-72
2023/01/10 07:04:29;;;;;;;;;;;5.00;99.90;;;;;;5039659;28;20314;-73
2023/01/10 07:06:55;;;;;;;;;;;4.30;99.90;;;;;;5039292;28;19921;-73
2023/01/10 07:09:21;;;;;;;;;;;5.00;99.90;;;;;;5007730;28;20294;-72
2023/01/10 07:11:46;;;;;;;;;;;5.00;99.90;;;;;;5025751;28;19925;-73
2023/01/10 07:14:15;;;;;;;;;;;5.00;99.90;;;;;;5010187;28;19929;-73
2023/01/10 07:16:41;;;;;;;;;;;5.00;99.90;;;;;;5024517;28;19975;-73
2023/01/10 07:19:06;;;;;;;;;;;5.10;99.90;;;;;;5026551;28;19926;-73
2023/01/10 07:21:32;;;;;;;;;;;5.00;99.90;;;;;;4988663;28;19928;-73
2023/01/10 07:23:58;;;;;;;;;;;5.00;99.90;;;;;;5009406;28;19925;-73
2023/01/10 07:26:23;;;;;;;;;;;5.10;99.90;;;;;;5023886;28;20426;-73
2023/01/10 07:28:49;;;;;;;;;;;5.10;99.90;;;;;;5022418;28;20019;-73
2023/01/10 07:31:16;;;;;;;;;;;5.00;99.90;;;;;;4992610;28;19921;-73
2023/01/10 07:33:42;;;;;;;;;;;5.00;99.90;;;;;;5012893;28;19925;-72
2023/01/10 07:36:07;;;;;;;;;;;5.00;99.90;;;;;;5015395;28;20302;-73
2023/01/10 07:38:33;;;;;;;;;;;4.90;99.90;;;;;;5021479;28;20015;-73
2023/01/10 07:41:02;;;;;;;;;;;4.90;99.90;;;;;;5025755;28;19940;-73
2023/01/10 07:43:28;;;;;;;;;;;5.00;99.90;;;;;;5025036;28;19955;-73
2023/01/10 07:45:53;;;;;;;;;;;5.00;99.90;;;;;;5034712;28;20415;-73
2023/01/10 07:48:19;;;;;;;;;;;5.00;99.90;;;;;;5012747;28;19922;-73
2023/01/10 07:50:48;;;;;;;;;;;5.00;99.90;;;;;;5026084;28;19931;-73
2023/01/10 07:53:13;;;;;;;;;;;5.00;99.90;;;;;;5026257;28;19920;-72
2023/01/10 07:55:40;;;;;;;;;;;4.90;99.90;;;;;;5012153;28;19998;-72
2023/01/10 07:58:06;;;;;;;;;;;4.90;99.90;;;;;;5024734;28;19921;-72
2023/01/10 08:00:33;;;;;;;;;;;4.80;99.90;;;;;;5028246;28;19928;-72
2023/01/10 08:02:59;;;;;;;;;;;4.80;99.90;;;;;;5009585;28;20386;-72
2023/01/10 08:05:25;;;;;;;;;;;4.80;99.90;;;;;;5011294;28;19932;-72
2023/01/10 08:07:58;;;;;;;;;;;4.80;99.90;;;;;;5032575;28;20368;-72
2023/01/10 08:10:24;;;;;;;;;;;4.80;99.90;;;;;;5037051;28;19921;-73
2023/01/10 08:12:50;;;;;;;;;;;4.80;99.90;;;;;;5031957;28;21461;-72
2023/01/10 08:15:16;;;;;;;;;;;4.80;99.90;;;;;;5030248;28;19928;-72
2023/01/10 08:17:41;;;;;;;;;;;4.80;99.90;;;;;;5003361;28;19925;-72
2023/01/10 08:20:08;;;;;;;;;;;4.90;99.90;;;;;;5027275;28;19921;-72
2023/01/10 08:22:33;;;;;;;;;;;4.80;99.90;;;;;;5032979;28;20393;-72
2023/01/10 08:24:59;;;;;;;;;;;4.90;99.90;;;;;;5028632;28;19925;-72
2023/01/10 08:27:25;;;;;;;;;;;4.80;99.90;;;;;;4994704;28;19922;-72
2023/01/10 08:29:50;;;;;;;;;;;4.80;99.90;;;;;;5012365;28;19932;-72
2023/01/10 08:32:16;;;;;;;;;;;4.80;99.90;;;;;;5002143;28;20302;-73
2023/01/10 08:34:42;;;;;;;;;;;4.90;99.90;;;;;;5000005;28;19925;-72
2023/01/10 08:37:11;;;;;;;;;;;4.90;99.90;;;;;;5003830;28;19960;-72
2023/01/10 08:39:38;;;;;;;;;;;4.90;99.90;;;;;;5002547;28;19987;-72
2023/01/10 08:42:04;;;;;;;;;;;5.00;99.90;;;;;;5028531;28;19975;-72
2023/01/10 08:44:29;;;;;;;;;;;5.00;99.90;;;;;;5013581;28;19929;-72
2023/01/10 08:46:55;;;;;;;;;;;5.10;99.90;;;;;;5036769;28;20379;-72
2023/01/10 08:49:21;;;;;;;;;;;5.20;99.90;;;;;;5035143;28;19932;-72
2023/01/10 08:51:47;;;;;;;;;;;5.30;99.90;;;;;;5035618;28;19932;-72
2023/01/10 08:54:13;;;;;;;;;;;5.30;99.90;;;;;;5011972;28;19974;-72
2023/01/10 08:56:41;;;;;;;;;;;5.40;99.90;;;;;;5027788;28;19921;-72
2023/01/10 08:59:07;;;;;;;;;;;5.40;99.90;;;;;;5028026;28;20037;-72
2023/01/10 09:01:33;;;;;;;;;;;5.40;99.90;;;;;;5032659;28;19964;-72
2023/01/10 09:03:59;;;;;;;;;;;5.60;99.90;;;;;;5011612;28;19926;-72
2023/01/10 09:06:24;;;;;;;;;;;5.80;99.90;;;;;;5028376;28;20393;-73
2023/01/10 09:08:50;;;;;;;;;;;6.10;99.90;;;;;;5006767;28;19921;-72
2023/01/10 09:11:16;;;;;;;;;;;6.50;99.90;;;;;;4991043;28;20325;-73
2023/01/10 09:13:42;;;;;;;;;;;6.40;99.90;;;;;;5000253;28;19921;-72
2023/01/10 09:16:08;;;;;;;;;;;6.10;99.90;;;;;;5018127;28;19928;-72
2023/01/10 09:18:34;;;;;;;;;;;5.80;99.90;;;;;;5018220;28;19986;-72
2023/01/10 09:20:59;;;;;;;;;;;5.60;99.90;;;;;;5031035;28;20271;-72
2023/01/10 09:23:28;;;;;;;;;;;5.60;99.90;;;;;;5043576;28;19959;-72
2023/01/10 09:25:54;;;;;;;;;;;5.50;99.90;;;;;;5018606;28;19921;-72
2023/01/10 09:28:20;;;;;;;;;;;5.50;99.90;;;;;;5018325;28;19925;-72
2023/01/10 09:30:46;;;;;;;;;;;5.50;99.90;;;;;;5025569;28;19929;-72
2023/01/10 09:33:13;;;;;;;;;;;5.50;99.90;;;;;;5045465;28;19935;-72
2023/01/10 09:35:39;;;;;;;;;;;5.60;99.90;;;;;;5027844;28;19921;-72
2023/01/10 09:38:05;;;;;;;;;;;5.60;99.90;;;;;;5017611;28;19975;-72
2023/01/10 09:40:37;;;;;;;;;;;5.70;99.90;;;;;;5033321;28;19925;-72
2023/01/10 09:43:07;;;;;;;;;;;5.70;99.90;;;;;;5031719;28;19929;-72
2023/01/10 09:45:49;;;;;;;;;;;5.70;99.90;;;;;;5032687;28;20514;-72
2023/01/10 09:48:19;;;;;;;;;;;5.70;99.90;;;;;;5034293;28;19928;-73
2023/01/10 09:51:01;;;;;;;;;;;5.70;99.90;;;;;;5034449;28;19979;-72
2023/01/10 09:53:29;;;;;;;;;;;5.70;99.90;;;;;;5015805;28;19921;-72
2023/01/10 09:55:56;;;;;;;;;;;5.70;99.90;;;;;;5034505;28;20016;-72
2023/01/10 09:58:26;;;;;;;;;;;5.70;99.90;;;;;;5017432;28;19920;-72
2023/01/10 10:00:57;;;;;;;;;;;5.80;99.90;;;;;;5034159;28;20337;-72
2023/01/10 10:03:33;;;;;;;;;;;5.80;99.90;;;;;;5015626;28;20020;-72
2023/01/10 10:05:59;;;;;;;;;;;5.90;99.90;;;;;;5034252;28;20011;-72
2023/01/10 10:08:25;;;;;;;;;;;5.90;99.90;;;;;;5001415;28;20020;-72
2023/01/10 10:11:06;;;;;;;;;;;6.00;99.90;;;;;;5028478;28;19967;-73
2023/01/10 10:13:32;;;;;;;;;;;6.00;99.90;;;;;;5032718;28;20020;-72
2023/01/10 10:16:25;;;;;;;;;;;6.00;99.90;;;;;;5034181;28;20016;-72
2023/01/10 10:19:01;;;;;;;;;;;6.00;99.90;;;;;;5033834;28;19921;-72
2023/01/10 10:21:47;;;;;;;;;;;6.10;99.90;;;;;;5022035;28;19921;-72
2023/01/10 10:24:16;;;;;;;;;;;6.10;99.90;;;;;;5030824;28;19925;-72
2023/01/10 10:27:07;;;;;;;;;;;6.10;99.90;;;;;;5029049;28;19921;-72
2023/01/10 10:29:42;;;;;;;;;;;6.10;99.90;;;;;;5027851;28;19921;-72
2023/01/10 10:32:07;;;;;;;;;;;6.20;99.90;;;;;;5014562;28;19921;-72
2023/01/10 10:34:36;;;;;;;;;;;6.20;99.90;;;;;;5013967;28;19932;-72
2023/01/10 10:37:24;;;;;;;;;;;6.20;99.90;;;;;;5029681;28;20394;-72
2023/01/10 10:39:52;;;;;;;;;;;6.20;99.90;;;;;;5030290;28;19944;-72
2023/01/10 10:42:18;;;;;;;;;;;6.20;99.90;;;;;;5032210;28;19921;-72
2023/01/10 10:44:47;;;;;;;;;;;6.20;99.90;;;;;;4995576;28;20382;-72
2023/01/10 10:47:17;;;;;;;;;;;6.20;99.90;;;;;;5038067;28;20387;-72
2023/01/10 10:49:43;;;;;;;;;;;6.20;99.90;;;;;;5028667;28;19921;-72
2023/01/10 10:52:33;;;;;;;;;;;6.20;99.90;;;;;;5014219;28;20376;-72
2023/01/10 10:54:59;;;;;;;;;;;6.30;99.90;;;;;;5030290;28;20130;-72
2023/01/10 10:57:26;;;;;;;;;;;6.30;99.90;;;;;;5030384;28;19921;-72
2023/01/10 10:59:52;;;;;;;;;;;6.30;99.90;;;;;;5020541;28;19925;-72
2023/01/10 11:02:23;;;;;;;;;;;6.30;99.90;;;;;;5040237;28;20185;-72
2023/01/10 11:04:51;;;;;;;;;;;6.30;99.90;;;;;;5027972;28;19928;-73
2023/01/10 11:07:16;;;;;;;;;;;6.30;99.90;;;;;;5044481;28;19921;-71
2023/01/10 11:09:55;;;;;;;;;;;6.30;99.90;;;;;;5030258;28;19927;-72
2023/01/10 11:12:29;;;;;;;;;;;6.30;99.90;;;;;;5031177;28;20016;-72
2023/01/10 11:14:55;;;;;;;;;;;6.20;99.90;;;;;;5013340;28;20386;-73
2023/01/10 11:17:24;;;;;;;;;;;6.30;99.90;;;;;;5013803;28;19928;-73
2023/01/10 11:19:58;;;;;;;;;;;6.30;99.90;;;;;;5020626;28;20051;-72
2023/01/10 11:22:24;;;;;;;;;;;6.30;99.90;;;;;;5011929;28;19921;-73
2023/01/10 11:24:52;;;;;;;;;;;6.30;99.90;;;;;;5013295;28;19956;-72
2023/01/10 11:27:20;;;;;;;;;;;6.30;99.90;;;;;;5027345;28;19979;-72
2023/01/10 11:29:47;;;;;;;;;;;6.30;99.90;;;;;;5030307;28;20172;-73
2023/01/10 11:32:16;;;;;;;;;;;6.30;99.90;;;;;;5003887;28;19922;-73
2023/01/10 11:34:52;;;;;;;;;;;6.30;99.90;;;;;;5027782;28;19921;-73
2023/01/10 11:37:31;;;;;;;;;;;6.40;99.90;;;;;;5006228;28;20275;-73
2023/01/10 11:40:09;;;;;;;;;;;6.30;99.90;;;;;;5027038;28;19947;-72
2023/01/10 11:42:34;;;;;;;;;;;6.40;99.90;;;;;;5013274;28;20007;-72
2023/01/10 11:45:18;;;;;;;;;;;6.40;99.90;;;;;;5029561;28;20028;-73
2023/01/10 11:47:49;;;;;;;;;;;6.40;99.90;;;;;;5013231;28;19921;-72
2023/01/10 11:50:19;;;;;;;;;;;6.40;99.90;;;;;;5030118;28;20029;-72
2023/01/10 11:52:46;;;;;;;;;;;6.40;99.90;;;;;;5029139;28;20299;-73
2023/01/10 11:55:38;;;;;;;;;;;6.30;99.90;;;;;;5018766;28;20004;-73
2023/01/10 11:58:12;;;;;;;;;;;6.40;99.90;;;;;;5023519;28;20030;-73
2023/01/10 12:00:45;;;;;;;;;;;6.40;99.90;;;;;;5023284;28;19932;-72
2023/01/10 12:03:15;;;;;;;;;;;6.40;99.90;;;;;;5029006;28;19926;-73
2023/01/10 12:05:48;;;;;;;;;;;6.40;99.90;;;;;;5039858;28;19968;-73
2023/01/10 12:08:24;;;;;;;;;;;6.30;99.90;;;;;;5027516;28;19930;-72
2023/01/10 12:10:57;;;;;;;;;;;6.30;99.90;;;;;;5029060;28;19964;-73
2023/01/10 12:13:23;;;;;;;;;;;6.30;99.90;;;;;;5029178;28;19944;-73
2023/01/10 12:15:48;;;;;;;;;;;6.30;99.90;;;;;;5028952;28;20359;-73
2023/01/10 12:18:16;;;;;;;;;;;6.30;99.90;;;;;;5029445;28;19952;-73
2023/01/10 12:20:47;;;;;;;;;;;6.30;99.90;;;;;;4996212;28;20008;-73
2023/01/10 12:23:16;;;;;;;;;;;6.20;99.90;;;;;;5028452;28;20378;-73
2023/01/10 12:25:43;;;;;;;;;;;6.20;99.90;;;;;;5028580;28;19928;-73
2023/01/10 12:28:27;;;;;;;;;;;6.20;99.90;;;;;;5028728;28;19921;-73
2023/01/10 12:30:55;;;;;;;;;;;6.20;99.90;;;;;;5028608;28;19921;-73
2023/01/10 12:33:26;;;;;;;;;;;6.20;99.90;;;;;;5028425;28;19925;-73
2023/01/10 12:36:08;;;;;;;;;;;6.20;99.90;;;;;;5028664;28;19928;-73
2023/01/10 12:39:02;;;;;;;;;;;6.10;99.90;;;;;;5029218;28;19929;-73
2023/01/10 12:44:29;;;;;;;;;;;6.10;99.90;;;;;;5028039;28;19975;-73
2023/01/10 12:47:00;;;;;;;;;;;6.10;99.90;;;;;;5030436;28;19929;-73
2023/01/10 12:49:56;;;;;;;;;;;6.10;99.90;;;;;;5028339;28;20294;-73
2023/01/10 12:52:30;;;;;;;;;;;6.10;99.90;;;;;;4991147;28;20429;-73
2023/01/10 12:54:56;;;;;;;;;;;6.10;99.90;;;;;;5026254;28;20370;-73
2023/01/10 12:57:42;;;;;;;;;;;6.00;99.90;;;;;;5027781;28;19921;-73
2023/01/10 13:00:16;;;;;;;;;;;6.00;99.90;;;;;;5011567;28;19925;-73
2023/01/10 13:02:44;;;;;;;;;;;6.00;99.90;;;;;;5028209;28;19921;-73
2023/01/10 13:05:21;;;;;;;;;;;6.00;99.90;;;;;;5011699;28;19932;-73
2023/01/10 13:07:47;;;;;;;;;;;6.00;99.90;;;;;;5012062;28;20014;-73
2023/01/10 13:10:16;;;;;;;;;;;6.00;99.90;;;;;;5028170;28;19921;-73
2023/01/10 13:12:44;;;;;;;;;;;6.00;99.90;;;;;;5017639;28;19922;-73
2023/01/10 13:15:16;;;;;;;;;;;6.00;99.90;;;;;;5032776;28;19925;-73
2023/01/10 13:17:44;;;;;;;;;;;5.90;99.90;;;;;;5027783;28;19927;-73
2023/01/10 13:20:16;;;;;;;;;;;5.90;99.90;;;;;;5020179;28;20016;-73
2023/01/10 13:22:42;;;;;;;;;;;5.90;99.90;;;;;;5031652;28;20018;-73
2023/01/10 13:25:25;;;;;;;;;;;5.90;99.90;;;;;;5020901;28;19932;-73
2023/01/10 13:27:55;;;;;;;;;;;5.90;99.90;;;;;;5037280;28;19929;-73
2023/01/10 13:30:32;;;;;;;;;;;5.80;99.90;;;;;;5036394;28;19929;-73
2023/01/10 13:33:00;;;;;;;;;;;5.80;99.90;;;;;;5002101;28;19921;-73
2023/01/10 13:35:27;;;;;;;;;;;5.80;99.90;;;;;;5011769;28;19921;-73
2023/01/10 13:37:54;;;;;;;;;;;5.80;99.90;;;;;;5027607;28;19925;-73
2023/01/10 13:40:22;;;;;;;;;;;5.80;99.90;;;;;;5011468;28;19971;-73
2023/01/10 13:43:19;;;;;;;;;;;5.80;99.90;;;;;;5011404;28;19944;-73
2023/01/10 13:45:45;;;;;;;;;;;5.80;99.90;;;;;;5001202;28;19932;-73
2023/01/10 13:48:25;;;;;;;;;;;5.80;99.90;;;;;;5008479;28;19922;-73
2023/01/10 13:50:55;;;;;;;;;;;5.80;99.90;;;;;;5010131;28;20011;-73
2023/01/10 13:53:41;;;;;;;;;;;5.80;99.90;;;;;;5042350;28;19929;-73
2023/01/10 13:56:27;;;;;;;;;;;5.70;99.90;;;;;;5009947;28;20010;-73
2023/01/10 14:04:28;;;;;;;;;;;5.70;99.90;;;;;;5025591;28;19928;-73
2023/01/10 14:06:56;;;;;;;;;;;5.70;99.90;;;;;;5015665;28;20060;-73
2023/01/10 14:09:21;;;;;;;;;;;5.70;99.90;;;;;;5016191;28;21228;-73
2023/01/10 14:11:49;;;;;;;;;;;5.70;99.90;;;;;;5014667;28;20283;-72
2023/01/10 14:14:24;;;;;;;;;;;5.70;99.90;;;;;;5013401;28;20473;-73
2023/01/10 14:16:55;;;;;;;;;;;5.70;99.90;;;;;;5013079;28;20291;-73
2023/01/10 14:19:28;;;;;;;;;;;5.70;99.90;;;;;;5030321;28;19951;-73
2023/01/10 14:21:55;;;;;;;;;;;5.70;99.90;;;;;;5030294;28;19924;-73
2023/01/10 14:24:30;;;;;;;;;;;6.00;99.90;;;;;;5028238;28;19975;-73
2023/01/10 14:26:59;;;;;;;;;;;5.70;99.90;;;;;;5018829;28;19928;-73
2023/01/10 14:29:27;;;;;;;;;;;5.70;99.90;;;;;;5034961;28;19998;-73
2023/01/10 14:31:55;;;;;;;;;;;5.70;99.90;;;;;;5025123;28;19925;-73
2023/01/10 14:34:22;;;;;;;;;;;5.70;99.90;;;;;;5011557;28;19983;-73
2023/01/10 14:37:04;;;;;;;;;;;5.70;99.90;;;;;;5033013;28;20267;-73
2023/01/10 14:39:30;;;;;;;;;;;5.70;99.90;;;;;;5036158;28;19932;-73
2023/01/10 14:42:01;;;;;;;;;;;5.70;99.90;;;;;;5008821;28;19928;-73
2023/01/10 14:44:30;;;;;;;;;;;5.80;99.90;;;;;;5026080;28;19925;-73
2023/01/10 14:46:56;;;;;;;;;;;5.80;99.90;;;;;;5026515;28;19940;-73
2023/01/10 14:49:26;;;;;;;;;;;5.80;99.90;;;;;;5012551;28;19936;-73
2023/01/10 14:52:09;;;;;;;;;;;5.70;99.90;;;;;;5010146;28;20662;-73
2023/01/10 14:54:35;;;;;;;;;;;5.80;99.90;;;;;;5015703;28;19940;-72
2023/01/10 14:57:03;;;;;;;;;;;5.80;99.90;;;;;;5010454;28;19921;-73
2023/01/10 14:59:30;;;;;;;;;;;5.80;99.90;;;;;;5007587;28;19933;-73
2023/01/10 15:02:00;;;;;;;;;;;5.80;99.90;;;;;;5007818;28;19928;-73
2023/01/10 15:04:27;;;;;;;;;;;5.80;99.90;;;;;;5026133;28;19935;-73
2023/01/10 15:07:09;;;;;;;;;;;5.80;99.90;;;;;;5034713;28;19925;-73
2023/01/10 15:09:35;;;;;;;;;;;5.80;99.90;;;;;;5024089;28;19971;-72